Ana Sayfa
METAR-TAF:

METAR-TAF

Havaalanları :

Waco, Teksas, Amerika Birleşik Devletleri

Enlem: 31-37-02N, Boylam: 097-13-40W, yükseklik: 157 m

Güncel hava durumu gözlemi

Rapor saat 10:51 UTC de 34 dakika önce yapıldı.
Rüzgar batıdan 3 kt
Sıcaklık 1°C
Nem 93%
Basınç 1020 hPa
Görüş mesafesi: 16.1 km
Açık gökyüzü

METAR: KACT 241051Z AUTO 26003KT 10SM CLR 01/00 A3011 RMK AO2 SLP195 T00060000

Saat: 05:25 (11:25 UTC)

Tahmin

Rapor saat 09:05 UTC de 2 saat ve 20 dakika önce yapıldı.
Ayın 24'si saat 09 UTC'den ayın 25'si saat 06 UTC'ye kadar geçerli Tahmin
Rüzgar batıdan 6 kt
Görüş mesafesi: 10 km
Açık gökyüzü
Ayın 24'si saat 1300 UTC'den
Rüzgar kuzeybatıdan 6 kt
Görüş mesafesi: 10 km
Açık gökyüzü
Ayın 25'si saat 0000 UTC'den
Rüzgar güneydoğudan 4 kt
Görüş mesafesi: 10 km
Açık gökyüzü

TAF: KACT 240905Z 2409/2506 27006KT P6SM SKC FM241300 32006KT P6SM SKC FM250000 13004KT P6SM SKC

4.000'den fazla havaalanı için hava durumu gözlemleri ve tahminleri (METAR ve TAF raporları).

Kullanılabilir istasyonlar harita üzerinde sarı ve kırmızı noktalarla gösterilir.

İstasyonun adını görmek için fareyi noktanın üzerinde gezdirin.

Sonrasında hava gözlem ve tahminlerini görmek için tıklayın.

Haritayı değiştirmek için: yaklaştırmak için siyah artı işaretli yeşil düğmeye ve uzaklaştırmak için de eksi işaretli düğmeye hızla tıklayın; bitişik haritalar için yeşil okları kullanın.


METAR-TAF: